sensor_id;sensor_type;location;lat;lon;timestamp;temperature;humidity
17348;DHT22;8791;50.876;4.342;2024-03-17T00:02:17;10.50;99.90
17348;DHT22;8791;50.876;4.342;2024-03-17T00:04:43;10.50;99.90
17348;DHT22;8791;50.876;4.342;2024-03-17T00:07:11;10.50;99.90
17348;DHT22;8791;50.876;4.342;2024-03-17T00:09:37;10.60;99.90
17348;DHT22;8791;50.876;4.342;2024-03-17T00:12:06;10.50;99.90
17348;DHT22;8791;50.876;4.342;2024-03-17T00:14:33;10.50;99.90
17348;DHT22;8791;50.876;4.342;2024-03-17T00:17:00;10.60;99.90
17348;DHT22;8791;50.876;4.342;2024-03-17T00:19:26;10.70;99.90
17348;DHT22;8791;50.876;4.342;2024-03-17T00:21:53;10.60;99.90
17348;DHT22;8791;50.876;4.342;2024-03-17T00:24:20;10.80;99.90
17348;DHT22;8791;50.876;4.342;2024-03-17T00:26:47;10.70;99.90
17348;DHT22;8791;50.876;4.342;2024-03-17T00:29:14;10.70;99.90
17348;DHT22;8791;50.876;4.342;2024-03-17T00:31:42;10.80;99.90
17348;DHT22;8791;50.876;4.342;2024-03-17T00:34:08;10.90;99.90
17348;DHT22;8791;50.876;4.342;2024-03-17T00:36:35;10.70;99.90
17348;DHT22;8791;50.876;4.342;2024-03-17T00:39:02;10.60;99.90
17348;DHT22;8791;50.876;4.342;2024-03-17T00:41:30;10.70;99.90
17348;DHT22;8791;50.876;4.342;2024-03-17T00:43:56;10.70;99.90
17348;DHT22;8791;50.876;4.342;2024-03-17T00:46:23;10.50;99.90
17348;DHT22;8791;50.876;4.342;2024-03-17T00:48:50;10.60;99.90
17348;DHT22;8791;50.876;4.342;2024-03-17T00:51:17;10.60;99.90
17348;DHT22;8791;50.876;4.342;2024-03-17T00:53:43;10.60;99.90
17348;DHT22;8791;50.876;4.342;2024-03-17T00:56:10;10.50;99.90
17348;DHT22;8791;50.876;4.342;2024-03-17T00:58:37;10.20;99.90
17348;DHT22;8791;50.876;4.342;2024-03-17T01:01:05;10.10;99.90
17348;DHT22;8791;50.876;4.342;2024-03-17T01:03:31;10.00;99.90
17348;DHT22;8791;50.876;4.342;2024-03-17T01:05:57;10.00;99.90
17348;DHT22;8791;50.876;4.342;2024-03-17T01:08:23;9.90;99.90
17348;DHT22;8791;50.876;4.342;2024-03-17T01:10:50;9.90;99.90
17348;DHT22;8791;50.876;4.342;2024-03-17T01:13:17;9.90;99.90
17348;DHT22;8791;50.876;4.342;2024-03-17T01:15:45;9.90;99.90
17348;DHT22;8791;50.876;4.342;2024-03-17T01:18:11;9.90;99.90
17348;DHT22;8791;50.876;4.342;2024-03-17T01:20:39;10.00;99.90
17348;DHT22;8791;50.876;4.342;2024-03-17T01:23:05;9.90;99.90
17348;DHT22;8791;50.876;4.342;2024-03-17T01:25:33;9.90;99.90
17348;DHT22;8791;50.876;4.342;2024-03-17T01:28:02;9.80;99.90
17348;DHT22;8791;50.876;4.342;2024-03-17T01:30:29;9.90;99.90
17348;DHT22;8791;50.876;4.342;2024-03-17T01:32:59;9.80;99.90
17348;DHT22;8791;50.876;4.342;2024-03-17T01:35:25;9.90;99.90
17348;DHT22;8791;50.876;4.342;2024-03-17T01:37:52;9.90;99.90
17348;DHT22;8791;50.876;4.342;2024-03-17T01:40:18;9.80;99.90
17348;DHT22;8791;50.876;4.342;2024-03-17T01:42:45;9.90;99.90
17348;DHT22;8791;50.876;4.342;2024-03-17T01:45:23;10.10;99.90
17348;DHT22;8791;50.876;4.342;2024-03-17T01:47:52;10.00;99.90
17348;DHT22;8791;50.876;4.342;2024-03-17T01:50:19;9.90;99.90
17348;DHT22;8791;50.876;4.342;2024-03-17T01:52:51;9.90;99.90
17348;DHT22;8791;50.876;4.342;2024-03-17T01:55:17;9.80;99.90
17348;DHT22;8791;50.876;4.342;2024-03-17T01:57:44;9.90;99.90
17348;DHT22;8791;50.876;4.342;2024-03-17T02:00:11;9.90;99.90
17348;DHT22;8791;50.876;4.342;2024-03-17T02:02:40;10.00;99.90
17348;DHT22;8791;50.876;4.342;2024-03-17T02:05:06;10.00;99.90
17348;DHT22;8791;50.876;4.342;2024-03-17T02:07:35;9.90;99.90
17348;DHT22;8791;50.876;4.342;2024-03-17T02:10:01;9.90;99.90
17348;DHT22;8791;50.876;4.342;2024-03-17T02:12:29;10.00;99.90
17348;DHT22;8791;50.876;4.342;2024-03-17T02:14:56;10.20;99.90
17348;DHT22;8791;50.876;4.342;2024-03-17T02:17:23;10.00;99.90
17348;DHT22;8791;50.876;4.342;2024-03-17T02:19:51;10.10;99.90
17348;DHT22;8791;50.876;4.342;2024-03-17T02:22:19;10.50;99.90
17348;DHT22;8791;50.876;4.342;2024-03-17T02:24:45;10.20;99.90
17348;DHT22;8791;50.876;4.342;2024-03-17T02:27:12;10.10;99.90
17348;DHT22;8791;50.876;4.342;2024-03-17T02:29:38;10.10;99.90
17348;DHT22;8791;50.876;4.342;2024-03-17T02:32:06;10.20;99.90
17348;DHT22;8791;50.876;4.342;2024-03-17T02:34:33;10.10;99.90
17348;DHT22;8791;50.876;4.342;2024-03-17T02:37:00;10.00;99.90
17348;DHT22;8791;50.876;4.342;2024-03-17T02:39:28;10.00;99.90
17348;DHT22;8791;50.876;4.342;2024-03-17T02:42:00;10.10;99.90
17348;DHT22;8791;50.876;4.342;2024-03-17T02:44:26;10.00;99.90
17348;DHT22;8791;50.876;4.342;2024-03-17T02:46:53;10.10;99.90
17348;DHT22;8791;50.876;4.342;2024-03-17T02:49:20;10.20;99.90
17348;DHT22;8791;50.876;4.342;2024-03-17T02:51:47;10.10;99.90
17348;DHT22;8791;50.876;4.342;2024-03-17T02:54:15;10.00;99.90
17348;DHT22;8791;50.876;4.342;2024-03-17T02:56:43;10.10;99.90
17348;DHT22;8791;50.876;4.342;2024-03-17T02:59:10;10.00;99.90
17348;DHT22;8791;50.876;4.342;2024-03-17T03:01:37;10.00;99.90
17348;DHT22;8791;50.876;4.342;2024-03-17T03:04:05;9.90;99.90
17348;DHT22;8791;50.876;4.342;2024-03-17T03:06:32;10.00;99.90
17348;DHT22;8791;50.876;4.342;2024-03-17T03:08:59;10.00;99.90
17348;DHT22;8791;50.876;4.342;2024-03-17T03:11:27;10.00;99.90
17348;DHT22;8791;50.876;4.342;2024-03-17T03:13:55;10.10;99.90
17348;DHT22;8791;50.876;4.342;2024-03-17T03:16:22;10.20;99.90
17348;DHT22;8791;50.876;4.342;2024-03-17T03:18:50;10.30;99.90
17348;DHT22;8791;50.876;4.342;2024-03-17T03:21:17;10.40;99.90
17348;DHT22;8791;50.876;4.342;2024-03-17T03:23:44;10.30;99.90
17348;DHT22;8791;50.876;4.342;2024-03-17T03:26:12;10.20;99.90
17348;DHT22;8791;50.876;4.342;2024-03-17T03:28:39;10.10;99.90
17348;DHT22;8791;50.876;4.342;2024-03-17T03:31:10;10.10;99.90
17348;DHT22;8791;50.876;4.342;2024-03-17T03:33:39;10.10;99.90
17348;DHT22;8791;50.876;4.342;2024-03-17T03:36:10;10.10;99.90
17348;DHT22;8791;50.876;4.342;2024-03-17T03:38:37;10.30;99.90
17348;DHT22;8791;50.876;4.342;2024-03-17T03:41:08;10.00;99.90
17348;DHT22;8791;50.876;4.342;2024-03-17T03:43:35;10.10;99.90
17348;DHT22;8791;50.876;4.342;2024-03-17T03:46:04;10.10;99.90
17348;DHT22;8791;50.876;4.342;2024-03-17T03:48:33;10.10;99.90
17348;DHT22;8791;50.876;4.342;2024-03-17T03:51:03;10.10;99.90
17348;DHT22;8791;50.876;4.342;2024-03-17T03:53:31;10.10;99.90
17348;DHT22;8791;50.876;4.342;2024-03-17T03:55:58;10.30;99.90
17348;DHT22;8791;50.876;4.342;2024-03-17T03:58:27;10.10;99.90
17348;DHT22;8791;50.876;4.342;2024-03-17T04:00:54;9.90;99.90
17348;DHT22;8791;50.876;4.342;2024-03-17T04:03:21;9.80;99.90
17348;DHT22;8791;50.876;4.342;2024-03-17T04:05:50;9.90;99.90
17348;DHT22;8791;50.876;4.342;2024-03-17T04:08:19;9.80;99.90
17348;DHT22;8791;50.876;4.342;2024-03-17T04:10:49;9.70;99.90
17348;DHT22;8791;50.876;4.342;2024-03-17T04:13:17;9.60;99.90
17348;DHT22;8791;50.876;4.342;2024-03-17T04:15:44;9.70;99.90
17348;DHT22;8791;50.876;4.342;2024-03-17T04:18:11;9.50;99.90
17348;DHT22;8791;50.876;4.342;2024-03-17T04:20:40;9.60;99.90
17348;DHT22;8791;50.876;4.342;2024-03-17T04:23:08;9.50;99.90
17348;DHT22;8791;50.876;4.342;2024-03-17T04:25:35;9.50;99.90
17348;DHT22;8791;50.876;4.342;2024-03-17T04:28:03;9.50;99.90
17348;DHT22;8791;50.876;4.342;2024-03-17T04:30:30;9.50;99.90
17348;DHT22;8791;50.876;4.342;2024-03-17T04:32:58;9.50;99.90
17348;DHT22;8791;50.876;4.342;2024-03-17T04:35:25;9.50;99.90
17348;DHT22;8791;50.876;4.342;2024-03-17T04:37:52;9.70;99.90
17348;DHT22;8791;50.876;4.342;2024-03-17T04:40:20;9.80;99.90
17348;DHT22;8791;50.876;4.342;2024-03-17T04:42:48;9.70;99.90
17348;DHT22;8791;50.876;4.342;2024-03-17T04:45:15;9.60;99.90
17348;DHT22;8791;50.876;4.342;2024-03-17T04:47:42;9.50;99.90
17348;DHT22;8791;50.876;4.342;2024-03-17T04:50:09;9.40;99.90
17348;DHT22;8791;50.876;4.342;2024-03-17T04:52:38;9.40;99.90
17348;DHT22;8791;50.876;4.342;2024-03-17T04:55:05;9.50;99.90
17348;DHT22;8791;50.876;4.342;2024-03-17T04:57:33;9.50;99.90
17348;DHT22;8791;50.876;4.342;2024-03-17T05:00:01;9.60;99.90
17348;DHT22;8791;50.876;4.342;2024-03-17T05:02:31;9.80;99.90
17348;DHT22;8791;50.876;4.342;2024-03-17T05:04:58;9.90;99.90
17348;DHT22;8791;50.876;4.342;2024-03-17T05:07:25;9.60;99.90
17348;DHT22;8791;50.876;4.342;2024-03-17T05:09:52;9.50;99.90
17348;DHT22;8791;50.876;4.342;2024-03-17T05:12:19;9.70;99.90
17348;DHT22;8791;50.876;4.342;2024-03-17T05:14:47;9.80;99.90
17348;DHT22;8791;50.876;4.342;2024-03-17T05:17:14;9.90;99.90
17348;DHT22;8791;50.876;4.342;2024-03-17T05:19:41;9.80;99.90
17348;DHT22;8791;50.876;4.342;2024-03-17T05:22:08;9.70;99.90
17348;DHT22;8791;50.876;4.342;2024-03-17T05:24:35;9.80;99.90
17348;DHT22;8791;50.876;4.342;2024-03-17T05:27:03;9.70;99.90
17348;DHT22;8791;50.876;4.342;2024-03-17T05:29:30;9.60;99.90
17348;DHT22;8791;50.876;4.342;2024-03-17T05:31:58;9.60;99.90
17348;DHT22;8791;50.876;4.342;2024-03-17T05:34:25;9.50;99.90
17348;DHT22;8791;50.876;4.342;2024-03-17T05:36:52;9.60;99.90
17348;DHT22;8791;50.876;4.342;2024-03-17T05:39:19;9.60;99.90
17348;DHT22;8791;50.876;4.342;2024-03-17T05:41:48;9.90;99.90
17348;DHT22;8791;50.876;4.342;2024-03-17T05:44:14;10.10;99.90
17348;DHT22;8791;50.876;4.342;2024-03-17T05:46:41;10.10;99.90
17348;DHT22;8791;50.876;4.342;2024-03-17T05:49:10;10.00;99.90
17348;DHT22;8791;50.876;4.342;2024-03-17T05:51:37;10.10;99.90
17348;DHT22;8791;50.876;4.342;2024-03-17T05:54:04;10.10;99.90
17348;DHT22;8791;50.876;4.342;2024-03-17T05:56:30;10.20;99.90
17348;DHT22;8791;50.876;4.342;2024-03-17T05:58:57;10.20;99.90
17348;DHT22;8791;50.876;4.342;2024-03-17T06:01:24;10.10;99.90
17348;DHT22;8791;50.876;4.342;2024-03-17T06:03:51;10.20;99.90
17348;DHT22;8791;50.876;4.342;2024-03-17T06:06:19;10.30;99.90
17348;DHT22;8791;50.876;4.342;2024-03-17T06:08:48;10.50;99.90
17348;DHT22;8791;50.876;4.342;2024-03-17T06:11:15;10.40;99.90
17348;DHT22;8791;50.876;4.342;2024-03-17T06:13:42;10.30;99.90
17348;DHT22;8791;50.876;4.342;2024-03-17T06:16:09;10.20;99.90
17348;DHT22;8791;50.876;4.342;2024-03-17T06:18:36;10.20;99.90
17348;DHT22;8791;50.876;4.342;2024-03-17T06:21:05;10.40;99.90
17348;DHT22;8791;50.876;4.342;2024-03-17T06:23:33;10.20;99.90
17348;DHT22;8791;50.876;4.342;2024-03-17T06:26:00;10.20;99.90
17348;DHT22;8791;50.876;4.342;2024-03-17T06:28:28;10.30;99.90
17348;DHT22;8791;50.876;4.342;2024-03-17T06:30:56;10.30;99.90
17348;DHT22;8791;50.876;4.342;2024-03-17T06:33:25;10.20;99.90
17348;DHT22;8791;50.876;4.342;2024-03-17T06:35:53;10.10;99.90
17348;DHT22;8791;50.876;4.342;2024-03-17T06:38:20;10.20;99.90
17348;DHT22;8791;50.876;4.342;2024-03-17T06:40:52;10.20;99.90
17348;DHT22;8791;50.876;4.342;2024-03-17T06:43:19;10.30;99.90
17348;DHT22;8791;50.876;4.342;2024-03-17T06:45:56;10.40;99.90
17348;DHT22;8791;50.876;4.342;2024-03-17T06:48:23;10.40;99.90
17348;DHT22;8791;50.876;4.342;2024-03-17T06:50:50;10.40;99.90
17348;DHT22;8791;50.876;4.342;2024-03-17T06:53:19;10.50;99.90
17348;DHT22;8791;50.876;4.342;2024-03-17T06:55:54;10.50;99.90
17348;DHT22;8791;50.876;4.342;2024-03-17T06:58:21;10.60;99.90
17348;DHT22;8791;50.876;4.342;2024-03-17T07:00:55;10.70;99.90
17348;DHT22;8791;50.876;4.342;2024-03-17T07:03:24;10.60;99.90
17348;DHT22;8791;50.876;4.342;2024-03-17T07:05:52;10.50;99.90
17348;DHT22;8791;50.876;4.342;2024-03-17T07:08:19;10.40;99.90
17348;DHT22;8791;50.876;4.342;2024-03-17T07:10:57;10.40;99.90
17348;DHT22;8791;50.876;4.342;2024-03-17T07:13:24;10.80;99.90
17348;DHT22;8791;50.876;4.342;2024-03-17T07:15:51;11.10;99.90
17348;DHT22;8791;50.876;4.342;2024-03-17T07:18:18;10.80;99.90
17348;DHT22;8791;50.876;4.342;2024-03-17T07:20:45;10.70;99.90
17348;DHT22;8791;50.876;4.342;2024-03-17T07:23:13;10.60;99.90
17348;DHT22;8791;50.876;4.342;2024-03-17T07:25:41;10.70;99.90
17348;DHT22;8791;50.876;4.342;2024-03-17T07:28:09;10.90;99.90
17348;DHT22;8791;50.876;4.342;2024-03-17T07:30:36;10.80;99.90
17348;DHT22;8791;50.876;4.342;2024-03-17T07:33:03;10.80;99.90
17348;DHT22;8791;50.876;4.342;2024-03-17T07:35:30;10.90;99.90
17348;DHT22;8791;50.876;4.342;2024-03-17T07:37:57;10.90;99.90
17348;DHT22;8791;50.876;4.342;2024-03-17T07:40:24;10.90;99.90
17348;DHT22;8791;50.876;4.342;2024-03-17T07:42:50;11.00;99.90
17348;DHT22;8791;50.876;4.342;2024-03-17T07:45:20;11.10;99.90
17348;DHT22;8791;50.876;4.342;2024-03-17T07:47:50;11.30;99.90
17348;DHT22;8791;50.876;4.342;2024-03-17T07:50:17;11.40;99.90
17348;DHT22;8791;50.876;4.342;2024-03-17T07:52:44;11.50;99.90
17348;DHT22;8791;50.876;4.342;2024-03-17T07:55:11;11.50;99.90
17348;DHT22;8791;50.876;4.342;2024-03-17T07:57:38;11.60;99.90
17348;DHT22;8791;50.876;4.342;2024-03-17T08:00:06;11.60;99.90
17348;DHT22;8791;50.876;4.342;2024-03-17T08:02:44;11.80;99.90
17348;DHT22;8791;50.876;4.342;2024-03-17T08:05:11;11.80;99.90
17348;DHT22;8791;50.876;4.342;2024-03-17T08:07:39;11.80;99.90
17348;DHT22;8791;50.876;4.342;2024-03-17T08:10:07;11.90;99.90
17348;DHT22;8791;50.876;4.342;2024-03-17T08:12:34;12.00;99.90
17348;DHT22;8791;50.876;4.342;2024-03-17T08:15:01;12.10;99.90
17348;DHT22;8791;50.876;4.342;2024-03-17T08:17:28;12.20;99.90
17348;DHT22;8791;50.876;4.342;2024-03-17T08:19:56;12.00;99.90
17348;DHT22;8791;50.876;4.342;2024-03-17T08:22:23;12.10;99.90
17348;DHT22;8791;50.876;4.342;2024-03-17T08:24:50;12.30;99.90
17348;DHT22;8791;50.876;4.342;2024-03-17T08:27:17;12.40;99.90
17348;DHT22;8791;50.876;4.342;2024-03-17T08:29:44;12.50;99.90
17348;DHT22;8791;50.876;4.342;2024-03-17T08:32:11;12.60;99.90
17348;DHT22;8791;50.876;4.342;2024-03-17T08:34:40;12.40;99.90
17348;DHT22;8791;50.876;4.342;2024-03-17T08:37:08;12.30;99.90
17348;DHT22;8791;50.876;4.342;2024-03-17T08:39:35;12.30;99.90
17348;DHT22;8791;50.876;4.342;2024-03-17T08:42:02;12.40;99.90
17348;DHT22;8791;50.876;4.342;2024-03-17T08:44:29;12.30;99.90
17348;DHT22;8791;50.876;4.342;2024-03-17T08:46:56;12.30;99.90
17348;DHT22;8791;50.876;4.342;2024-03-17T08:49:24;12.30;99.90
17348;DHT22;8791;50.876;4.342;2024-03-17T08:51:51;12.40;99.90
17348;DHT22;8791;50.876;4.342;2024-03-17T08:54:20;12.20;99.90
17348;DHT22;8791;50.876;4.342;2024-03-17T08:56:47;12.10;99.90
17348;DHT22;8791;50.876;4.342;2024-03-17T08:59:15;12.10;99.90
17348;DHT22;8791;50.876;4.342;2024-03-17T09:01:41;12.20;99.90
17348;DHT22;8791;50.876;4.342;2024-03-17T09:04:09;12.30;99.90
17348;DHT22;8791;50.876;4.342;2024-03-17T09:06:37;12.40;99.90
17348;DHT22;8791;50.876;4.342;2024-03-17T09:09:04;12.50;99.90
17348;DHT22;8791;50.876;4.342;2024-03-17T09:11:33;12.70;99.90
17348;DHT22;8791;50.876;4.342;2024-03-17T09:14:00;12.80;99.90
17348;DHT22;8791;50.876;4.342;2024-03-17T09:16:27;12.80;99.90
17348;DHT22;8791;50.876;4.342;2024-03-17T09:18:56;12.80;99.90
17348;DHT22;8791;50.876;4.342;2024-03-17T09:21:23;12.90;99.90
17348;DHT22;8791;50.876;4.342;2024-03-17T09:23:50;12.90;99.90
17348;DHT22;8791;50.876;4.342;2024-03-17T09:26:17;12.60;99.90
17348;DHT22;8791;50.876;4.342;2024-03-17T09:28:45;12.70;99.90
17348;DHT22;8791;50.876;4.342;2024-03-17T09:31:12;12.70;99.90
17348;DHT22;8791;50.876;4.342;2024-03-17T09:33:39;12.70;99.90
17348;DHT22;8791;50.876;4.342;2024-03-17T09:36:07;12.50;99.90
17348;DHT22;8791;50.876;4.342;2024-03-17T09:38:36;12.40;99.90
17348;DHT22;8791;50.876;4.342;2024-03-17T09:41:06;12.50;99.90
17348;DHT22;8791;50.876;4.342;2024-03-17T09:43:35;12.50;99.90
17348;DHT22;8791;50.876;4.342;2024-03-17T09:46:04;12.60;99.90
17348;DHT22;8791;50.876;4.342;2024-03-17T09:48:31;12.70;99.90
17348;DHT22;8791;50.876;4.342;2024-03-17T09:50:59;12.80;99.90
17348;DHT22;8791;50.876;4.342;2024-03-17T09:53:28;12.70;99.90
17348;DHT22;8791;50.876;4.342;2024-03-17T09:55:58;12.70;99.90
17348;DHT22;8791;50.876;4.342;2024-03-17T09:58:25;12.80;99.90
17348;DHT22;8791;50.876;4.342;2024-03-17T10:00:52;12.70;99.90
17348;DHT22;8791;50.876;4.342;2024-03-17T10:03:43;12.70;99.90
17348;DHT22;8791;50.876;4.342;2024-03-17T10:06:12;12.80;99.90
17348;DHT22;8791;50.876;4.342;2024-03-17T10:08:46;12.90;99.90
17348;DHT22;8791;50.876;4.342;2024-03-17T10:11:16;13.10;99.90
17348;DHT22;8791;50.876;4.342;2024-03-17T10:13:43;13.10;99.90
17348;DHT22;8791;50.876;4.342;2024-03-17T10:16:24;13.20;99.90
17348;DHT22;8791;50.876;4.342;2024-03-17T10:19:08;13.30;99.90
17348;DHT22;8791;50.876;4.342;2024-03-17T10:21:36;13.20;99.90
17348;DHT22;8791;50.876;4.342;2024-03-17T10:24:08;13.30;99.90
17348;DHT22;8791;50.876;4.342;2024-03-17T10:26:42;13.30;99.90
17348;DHT22;8791;50.876;4.342;2024-03-17T10:29:31;13.10;99.90
17348;DHT22;8791;50.876;4.342;2024-03-17T10:32:03;13.10;99.90
17348;DHT22;8791;50.876;4.342;2024-03-17T10:34:31;13.20;99.90
17348;DHT22;8791;50.876;4.342;2024-03-17T10:37:07;13.20;99.90
17348;DHT22;8791;50.876;4.342;2024-03-17T10:39:36;13.20;99.90
17348;DHT22;8791;50.876;4.342;2024-03-17T10:42:05;13.30;99.90
17348;DHT22;8791;50.876;4.342;2024-03-17T10:44:33;13.30;99.90
17348;DHT22;8791;50.876;4.342;2024-03-17T10:47:01;13.30;99.90
17348;DHT22;8791;50.876;4.342;2024-03-17T10:49:32;13.50;99.90
17348;DHT22;8791;50.876;4.342;2024-03-17T10:52:01;13.40;99.90
17348;DHT22;8791;50.876;4.342;2024-03-17T10:54:30;13.50;99.90
17348;DHT22;8791;50.876;4.342;2024-03-17T10:57:07;13.80;99.90
17348;DHT22;8791;50.876;4.342;2024-03-17T10:59:39;13.70;99.90
17348;DHT22;8791;50.876;4.342;2024-03-17T11:02:17;13.80;99.90
17348;DHT22;8791;50.876;4.342;2024-03-17T11:04:51;13.70;99.90
17348;DHT22;8791;50.876;4.342;2024-03-17T11:07:18;13.60;99.90
17348;DHT22;8791;50.876;4.342;2024-03-17T11:09:46;13.80;99.90
17348;DHT22;8791;50.876;4.342;2024-03-17T11:12:42;14.00;99.90
17348;DHT22;8791;50.876;4.342;2024-03-17T11:15:38;14.10;99.90
17348;DHT22;8791;50.876;4.342;2024-03-17T11:21:24;14.40;99.90
17348;DHT22;8791;50.876;4.342;2024-03-17T11:23:58;14.40;99.90
17348;DHT22;8791;50.876;4.342;2024-03-17T11:26:31;14.60;99.90
17348;DHT22;8791;50.876;4.342;2024-03-17T11:28:58;14.70;99.90
17348;DHT22;8791;50.876;4.342;2024-03-17T11:31:43;14.90;99.90
17348;DHT22;8791;50.876;4.342;2024-03-17T11:34:32;15.20;99.90
17348;DHT22;8791;50.876;4.342;2024-03-17T11:37:02;15.00;99.90
17348;DHT22;8791;50.876;4.342;2024-03-17T11:39:53;15.10;99.90
17348;DHT22;8791;50.876;4.342;2024-03-17T11:42:24;15.30;99.90
17348;DHT22;8791;50.876;4.342;2024-03-17T11:45:05;15.10;99.90
17348;DHT22;8791;50.876;4.342;2024-03-17T11:47:40;14.90;99.90
17348;DHT22;8791;50.876;4.342;2024-03-17T11:50:10;14.90;99.90
17348;DHT22;8791;50.876;4.342;2024-03-17T11:52:40;15.00;99.90
17348;DHT22;8791;50.876;4.342;2024-03-17T11:55:16;15.10;99.90
17348;DHT22;8791;50.876;4.342;2024-03-17T11:57:43;15.10;99.90
17348;DHT22;8791;50.876;4.342;2024-03-17T12:00:19;15.10;99.90
17348;DHT22;8791;50.876;4.342;2024-03-17T12:02:48;15.20;99.90
17348;DHT22;8791;50.876;4.342;2024-03-17T12:05:16;15.00;99.90
17348;DHT22;8791;50.876;4.342;2024-03-17T12:07:44;15.10;99.90
17348;DHT22;8791;50.876;4.342;2024-03-17T12:10:12;15.20;99.90
17348;DHT22;8791;50.876;4.342;2024-03-17T12:12:40;15.30;99.90
17348;DHT22;8791;50.876;4.342;2024-03-17T12:15:17;15.40;99.90
17348;DHT22;8791;50.876;4.342;2024-03-17T12:17:43;15.40;99.90
17348;DHT22;8791;50.876;4.342;2024-03-17T12:20:20;15.50;99.90
17348;DHT22;8791;50.876;4.342;2024-03-17T12:22:48;15.50;99.90
17348;DHT22;8791;50.876;4.342;2024-03-17T12:25:18;15.60;99.90
17348;DHT22;8791;50.876;4.342;2024-03-17T12:27:45;15.70;99.90
17348;DHT22;8791;50.876;4.342;2024-03-17T12:30:14;15.60;99.90
17348;DHT22;8791;50.876;4.342;2024-03-17T12:32:41;15.70;99.90
17348;DHT22;8791;50.876;4.342;2024-03-17T12:35:13;15.80;99.90
17348;DHT22;8791;50.876;4.342;2024-03-17T12:37:42;16.00;99.90
17348;DHT22;8791;50.876;4.342;2024-03-17T12:40:18;15.90;99.90
17348;DHT22;8791;50.876;4.342;2024-03-17T12:42:48;16.30;99.90
17348;DHT22;8791;50.876;4.342;2024-03-17T12:45:20;16.30;99.90
17348;DHT22;8791;50.876;4.342;2024-03-17T12:47:51;16.20;99.90
17348;DHT22;8791;50.876;4.342;2024-03-17T12:50:21;16.30;99.90
17348;DHT22;8791;50.876;4.342;2024-03-17T12:52:55;16.20;99.90
17348;DHT22;8791;50.876;4.342;2024-03-17T12:55:25;16.20;99.90
17348;DHT22;8791;50.876;4.342;2024-03-17T12:58:10;16.10;99.90
17348;DHT22;8791;50.876;4.342;2024-03-17T13:00:59;16.30;99.90
17348;DHT22;8791;50.876;4.342;2024-03-17T13:03:28;16.10;99.90
17348;DHT22;8791;50.876;4.342;2024-03-17T13:05:57;16.20;99.90
17348;DHT22;8791;50.876;4.342;2024-03-17T13:08:24;16.20;99.90
17348;DHT22;8791;50.876;4.342;2024-03-17T13:10:52;16.30;99.90
17348;DHT22;8791;50.876;4.342;2024-03-17T13:13:19;16.20;99.90
17348;DHT22;8791;50.876;4.342;2024-03-17T13:15:46;16.20;99.90
17348;DHT22;8791;50.876;4.342;2024-03-17T13:18:17;16.00;99.90
17348;DHT22;8791;50.876;4.342;2024-03-17T13:20:46;15.90;99.90
17348;DHT22;8791;50.876;4.342;2024-03-17T13:23:15;15.80;99.90
17348;DHT22;8791;50.876;4.342;2024-03-17T13:25:42;15.50;99.90
17348;DHT22;8791;50.876;4.342;2024-03-17T13:28:12;15.50;99.90
17348;DHT22;8791;50.876;4.342;2024-03-17T13:30:39;15.40;99.90
17348;DHT22;8791;50.876;4.342;2024-03-17T13:33:07;15.40;99.90
17348;DHT22;8791;50.876;4.342;2024-03-17T13:35:36;15.50;99.90
17348;DHT22;8791;50.876;4.342;2024-03-17T13:38:05;15.60;99.90
17348;DHT22;8791;50.876;4.342;2024-03-17T13:40:33;15.40;99.90
17348;DHT22;8791;50.876;4.342;2024-03-17T13:43:01;15.40;99.90
17348;DHT22;8791;50.876;4.342;2024-03-17T13:45:31;15.40;99.90
17348;DHT22;8791;50.876;4.342;2024-03-17T13:48:03;15.30;99.90
17348;DHT22;8791;50.876;4.342;2024-03-17T13:50:30;15.40;99.90
17348;DHT22;8791;50.876;4.342;2024-03-17T13:52:57;15.50;99.90
17348;DHT22;8791;50.876;4.342;2024-03-17T13:55:25;15.30;99.90
17348;DHT22;8791;50.876;4.342;2024-03-17T13:57:54;15.20;99.90
17348;DHT22;8791;50.876;4.342;2024-03-17T14:00:22;15.50;99.90
17348;DHT22;8791;50.876;4.342;2024-03-17T14:02:52;15.60;99.90
17348;DHT22;8791;50.876;4.342;2024-03-17T14:05:20;15.80;99.90
17348;DHT22;8791;50.876;4.342;2024-03-17T14:07:48;15.60;99.90
17348;DHT22;8791;50.876;4.342;2024-03-17T14:10:16;15.70;99.90
17348;DHT22;8791;50.876;4.342;2024-03-17T14:12:43;15.50;99.90
17348;DHT22;8791;50.876;4.342;2024-03-17T14:15:11;15.30;99.90
17348;DHT22;8791;50.876;4.342;2024-03-17T14:17:39;15.20;99.90
17348;DHT22;8791;50.876;4.342;2024-03-17T14:20:08;15.30;99.90
17348;DHT22;8791;50.876;4.342;2024-03-17T14:22:36;15.10;99.90
17348;DHT22;8791;50.876;4.342;2024-03-17T14:25:04;15.10;99.90
17348;DHT22;8791;50.876;4.342;2024-03-17T14:27:31;14.90;99.90
17348;DHT22;8791;50.876;4.342;2024-03-17T14:29:58;14.90;99.90
17348;DHT22;8791;50.876;4.342;2024-03-17T14:32:25;14.90;99.90
17348;DHT22;8791;50.876;4.342;2024-03-17T14:34:53;15.10;99.90
17348;DHT22;8791;50.876;4.342;2024-03-17T14:37:21;15.30;99.90
17348;DHT22;8791;50.876;4.342;2024-03-17T14:39:48;15.40;99.90
17348;DHT22;8791;50.876;4.342;2024-03-17T14:42:16;15.30;99.90
17348;DHT22;8791;50.876;4.342;2024-03-17T14:44:43;15.20;99.90
17348;DHT22;8791;50.876;4.342;2024-03-17T14:47:10;15.10;99.90
17348;DHT22;8791;50.876;4.342;2024-03-17T14:49:37;15.20;99.90
17348;DHT22;8791;50.876;4.342;2024-03-17T14:52:03;15.10;99.90
17348;DHT22;8791;50.876;4.342;2024-03-17T14:54:32;15.20;99.90
17348;DHT22;8791;50.876;4.342;2024-03-17T14:56:59;15.00;99.90
17348;DHT22;8791;50.876;4.342;2024-03-17T14:59:26;15.00;99.90
17348;DHT22;8791;50.876;4.342;2024-03-17T15:01:53;15.10;99.90
17348;DHT22;8791;50.876;4.342;2024-03-17T15:04:21;15.10;99.90
17348;DHT22;8791;50.876;4.342;2024-03-17T15:06:48;15.00;99.90
17348;DHT22;8791;50.876;4.342;2024-03-17T15:09:15;14.90;99.90
17348;DHT22;8791;50.876;4.342;2024-03-17T15:11:46;14.70;99.90
17348;DHT22;8791;50.876;4.342;2024-03-17T15:14:13;14.70;99.90
17348;DHT22;8791;50.876;4.342;2024-03-17T15:16:40;14.80;99.90
17348;DHT22;8791;50.876;4.342;2024-03-17T15:19:07;14.80;99.90
17348;DHT22;8791;50.876;4.342;2024-03-17T15:21:34;14.80;99.90
17348;DHT22;8791;50.876;4.342;2024-03-17T15:24:01;14.90;99.90
17348;DHT22;8791;50.876;4.342;2024-03-17T15:26:29;14.80;99.90
17348;DHT22;8791;50.876;4.342;2024-03-17T15:28:59;14.60;99.90
17348;DHT22;8791;50.876;4.342;2024-03-17T15:31:29;14.60;99.90
17348;DHT22;8791;50.876;4.342;2024-03-17T15:34:01;14.60;99.90
17348;DHT22;8791;50.876;4.342;2024-03-17T15:36:28;14.60;99.90
17348;DHT22;8791;50.876;4.342;2024-03-17T15:38:55;14.40;99.90
17348;DHT22;8791;50.876;4.342;2024-03-17T15:41:22;14.40;99.90
17348;DHT22;8791;50.876;4.342;2024-03-17T15:43:49;14.60;99.90
17348;DHT22;8791;50.876;4.342;2024-03-17T15:46:19;14.60;99.90
17348;DHT22;8791;50.876;4.342;2024-03-17T15:48:48;14.40;99.90
17348;DHT22;8791;50.876;4.342;2024-03-17T15:51:15;14.40;99.90
17348;DHT22;8791;50.876;4.342;2024-03-17T15:53:44;14.50;99.90
17348;DHT22;8791;50.876;4.342;2024-03-17T15:56:11;14.40;99.90
17348;DHT22;8791;50.876;4.342;2024-03-17T15:58:38;14.30;99.90
17348;DHT22;8791;50.876;4.342;2024-03-17T16:01:06;14.20;99.90
17348;DHT22;8791;50.876;4.342;2024-03-17T16:03:37;14.30;99.90